createdAt,value
2017-02-28T00:00:07.108Z,0
2017-02-28T00:01:17.487Z,0
2017-02-28T00:02:28.288Z,0
2017-02-28T00:03:39.063Z,0
2017-02-28T00:04:49.450Z,0
2017-02-28T00:06:00.271Z,0
2017-02-28T00:07:11.087Z,0
2017-02-28T00:08:21.865Z,0
2017-02-28T00:09:32.649Z,0
2017-02-28T00:10:43.439Z,0
2017-02-28T00:11:53.819Z,0
2017-02-28T00:13:04.196Z,0
2017-02-28T00:14:13.799Z,0
2017-02-28T00:15:23.814Z,0
2017-02-28T00:16:34.216Z,0
2017-02-28T00:17:44.579Z,0
2017-02-28T00:18:55.361Z,0
2017-02-28T00:20:05.769Z,0
2017-02-28T00:21:15.781Z,0
2017-02-28T00:22:26.152Z,0
2017-02-28T00:23:36.137Z,0
2017-02-28T00:24:46.546Z,0
2017-02-28T00:25:57.340Z,0
2017-02-28T00:27:08.120Z,0
2017-02-28T00:28:18.104Z,0
2017-02-28T00:29:28.481Z,0
2017-02-28T00:30:38.487Z,0
2017-02-28T00:31:49.274Z,0
2017-02-28T00:32:59.650Z,0
2017-02-28T00:34:10.406Z,0
2017-02-28T00:35:20.796Z,0
2017-02-28T00:36:30.381Z,0
2017-02-28T00:37:40.376Z,0
2017-02-28T00:38:51.187Z,0
2017-02-28T00:40:01.978Z,0
2017-02-28T00:41:12.359Z,0
2017-02-28T00:42:23.145Z,0
2017-02-28T00:43:33.523Z,0
2017-02-28T00:44:44.309Z,0
2017-02-28T00:45:54.710Z,0
2017-02-28T00:47:05.104Z,0
2017-02-28T00:48:15.912Z,0
2017-02-28T00:49:26.679Z,0
2017-02-28T00:50:37.463Z,0
2017-02-28T00:51:48.239Z,0
2017-02-28T00:52:59.029Z,0
2017-02-28T00:54:09.447Z,0
2017-02-28T00:55:20.229Z,0
2017-02-28T00:56:30.610Z,0
2017-02-28T00:57:40.997Z,0
2017-02-28T00:58:51.789Z,0
2017-02-28T01:00:02.591Z,0
2017-02-28T01:01:12.199Z,0
2017-02-28T01:02:22.970Z,0
2017-02-28T01:03:33.767Z,0
2017-02-28T01:04:44.553Z,0
2017-02-28T01:05:55.358Z,0
2017-02-28T01:07:05.747Z,0
2017-02-28T01:08:16.359Z,0
2017-02-28T01:09:26.759Z,0
2017-02-28T01:10:37.541Z,0
2017-02-28T01:11:48.313Z,0
2017-02-28T01:12:58.735Z,0
2017-02-28T01:14:08.737Z,0
2017-02-28T01:15:19.134Z,0
2017-02-28T01:16:28.748Z,0
2017-02-28T01:17:39.129Z,0
2017-02-28T01:18:48.714Z,0
2017-02-28T01:19:59.085Z,0
2017-02-28T01:21:09.878Z,0
2017-02-28T01:22:20.679Z,0
2017-02-28T01:23:31.059Z,0
2017-02-28T01:24:41.839Z,0
2017-02-28T01:25:52.229Z,0
2017-02-28T01:27:03.009Z,0
2017-02-28T01:28:13.797Z,0
2017-02-28T01:29:24.177Z,0
2017-02-28T01:30:34.542Z,0
2017-02-28T01:31:44.919Z,0
2017-02-28T01:32:55.289Z,0
2017-02-28T01:34:05.273Z,0
2017-02-28T01:35:15.673Z,0
2017-02-28T01:36:26.455Z,0
2017-02-28T01:37:36.847Z,0
2017-02-28T01:38:47.649Z,0
2017-02-28T01:39:57.630Z,0
2017-02-28T01:41:08.014Z,0
2017-02-28T01:42:18.796Z,0
2017-02-28T01:43:29.177Z,0
2017-02-28T01:44:39.156Z,0
2017-02-28T01:45:49.924Z,0
2017-02-28T01:47:00.719Z,0
2017-02-28T01:48:11.498Z,0
2017-02-28T01:49:22.264Z,0
2017-02-28T01:50:33.045Z,0
2017-02-28T01:51:43.816Z,0
2017-02-28T01:52:54.202Z,0
2017-02-28T01:54:04.997Z,0
2017-02-28T01:55:15.773Z,0
2017-02-28T01:56:26.549Z,0
2017-02-28T01:57:37.340Z,0
2017-02-28T01:58:48.127Z,0
2017-02-28T01:59:58.504Z,0
2017-02-28T02:01:08.492Z,0
2017-02-28T02:02:18.848Z,0
2017-02-28T02:03:29.627Z,0
2017-02-28T02:04:40.015Z,0
2017-02-28T02:05:50.797Z,0
2017-02-28T02:07:01.574Z,0
2017-02-28T02:08:12.336Z,0
2017-02-28T02:09:22.719Z,0
2017-02-28T02:10:33.502Z,0
2017-02-28T02:11:43.893Z,0
2017-02-28T02:12:54.673Z,0
2017-02-28T02:14:04.666Z,0
2017-02-28T02:15:15.481Z,0
2017-02-28T02:16:25.922Z,0
2017-02-28T02:17:35.539Z,0
2017-02-28T02:18:46.302Z,0
2017-02-28T02:19:56.713Z,0
2017-02-28T02:21:07.095Z,0
2017-02-28T02:22:17.886Z,0
2017-02-28T02:23:28.252Z,0
2017-02-28T02:24:37.860Z,0
2017-02-28T02:25:48.646Z,0
2017-02-28T02:26:59.018Z,0
2017-02-28T02:28:09.427Z,0
2017-02-28T02:29:19.419Z,0
2017-02-28T02:30:30.218Z,0
2017-02-28T02:31:41.010Z,0
2017-02-28T02:32:51.008Z,0
2017-02-28T02:34:01.013Z,0
2017-02-28T02:35:11.807Z,0
2017-02-28T02:36:22.582Z,0
2017-02-28T02:37:33.376Z,0
2017-02-28T02:38:44.150Z,0
2017-02-28T02:39:54.540Z,0
2017-02-28T02:41:04.909Z,0
2017-02-28T02:42:15.293Z,0
2017-02-28T02:43:25.286Z,0
2017-02-28T02:44:35.658Z,0
2017-02-28T02:45:45.675Z,0
2017-02-28T02:46:56.078Z,0
2017-02-28T02:48:06.858Z,0
2017-02-28T02:49:16.828Z,0
2017-02-28T02:50:27.185Z,0
2017-02-28T02:51:37.972Z,0
2017-02-28T02:52:48.751Z,0
2017-02-28T02:53:59.537Z,0
2017-02-28T02:55:09.918Z,0
2017-02-28T02:56:20.716Z,0
2017-02-28T02:57:30.721Z,0
2017-02-28T02:58:41.487Z,0
2017-02-28T02:59:52.270Z,0
2017-02-28T03:01:02.643Z,0
2017-02-28T03:32:33.037Z,0
2017-02-28T03:33:43.818Z,0
2017-02-28T03:34:54.442Z,0
2017-02-28T03:36:05.238Z,0
2017-02-28T03:37:16.015Z,0
2017-02-28T03:38:26.397Z,0
2017-02-28T03:39:36.766Z,0
2017-02-28T03:40:46.748Z,0
2017-02-28T03:41:57.139Z,0
2017-02-28T03:43:07.514Z,0
2017-02-28T03:44:18.280Z,0
2017-02-28T03:45:29.060Z,0
2017-02-28T03:46:39.475Z,0
2017-02-28T03:47:49.878Z,0
2017-02-28T03:49:00.266Z,0
2017-02-28T03:50:11.057Z,0
2017-02-28T03:51:21.884Z,0
2017-02-28T03:52:32.677Z,0
2017-02-28T03:55:17.447Z,0
2017-02-28T03:56:27.452Z,0
2017-02-28T03:57:38.230Z,0
2017-02-28T03:58:48.226Z,0
2017-02-28T03:59:58.995Z,0
2017-02-28T04:01:09.389Z,0
2017-02-28T04:02:20.157Z,0
2017-02-28T04:03:30.944Z,0
2017-02-28T04:04:41.741Z,0
2017-02-28T04:05:50.929Z,0
2017-02-28T04:07:01.703Z,0
2017-02-28T04:08:12.090Z,0
2017-02-28T04:09:22.464Z,0
2017-02-28T04:10:32.865Z,0
2017-02-28T04:11:43.256Z,0
2017-02-28T04:12:53.629Z,0
2017-02-28T04:14:04.399Z,0
2017-02-28T04:15:15.179Z,0
2017-02-28T04:16:25.960Z,0
2017-02-28T04:17:36.731Z,0
2017-02-28T04:18:47.508Z,0
2017-02-28T04:19:57.934Z,0
2017-02-28T04:21:08.342Z,0
2017-02-28T04:22:19.117Z,0
2017-02-28T04:23:29.510Z,0
2017-02-28T04:24:39.900Z,0
2017-02-28T04:25:50.659Z,0
2017-02-28T04:27:00.659Z,0
2017-02-28T04:28:11.042Z,0
2017-02-28T04:29:21.432Z,0
2017-02-28T04:30:31.805Z,0
2017-02-28T04:31:42.186Z,0
2017-02-28T04:32:52.976Z,0
2017-02-28T04:34:03.760Z,0
2017-02-28T04:35:14.182Z,0
2017-02-28T04:36:24.944Z,0
2017-02-28T04:37:35.385Z,0
2017-02-28T04:38:46.168Z,0
2017-02-28T04:39:56.559Z,0
2017-02-28T04:41:07.346Z,0
2017-02-28T04:42:16.927Z,0
2017-02-28T04:43:27.709Z,0
2017-02-28T04:44:38.506Z,0
2017-02-28T04:45:49.305Z,0
2017-02-28T04:47:00.079Z,0
2017-02-28T04:48:10.854Z,0
2017-02-28T04:49:21.229Z,0
2017-02-28T04:50:31.217Z,0
2017-02-28T04:51:41.197Z,0
2017-02-28T04:52:51.579Z,0
2017-02-28T04:54:02.404Z,0
2017-02-28T04:55:13.197Z,0
2017-02-28T04:56:23.574Z,0
2017-02-28T04:57:33.954Z,0
2017-02-28T04:58:44.736Z,0
2017-02-28T04:59:54.709Z,0
2017-02-28T05:01:05.506Z,0
2017-02-28T05:02:16.308Z,0
2017-02-28T05:03:26.701Z,0
2017-02-28T05:04:37.477Z,0
2017-02-28T05:05:47.084Z,0
2017-02-28T05:06:57.465Z,0
2017-02-28T05:08:07.869Z,0
2017-02-28T05:09:17.853Z,0
2017-02-28T05:10:27.871Z,0
2017-02-28T05:11:38.657Z,0
2017-02-28T05:12:49.439Z,0
2017-02-28T05:14:00.217Z,0
2017-02-28T05:15:10.980Z,0
2017-02-28T05:16:20.979Z,0
2017-02-28T05:17:31.746Z,0
2017-02-28T05:18:41.747Z,0
2017-02-28T05:19:51.735Z,0
2017-02-28T05:21:02.137Z,0
2017-02-28T05:22:12.945Z,0
2017-02-28T05:23:23.354Z,0
2017-02-28T05:24:33.726Z,0
2017-02-28T05:25:44.121Z,0
2017-02-28T05:26:54.897Z,0
2017-02-28T05:28:05.279Z,0
2017-02-28T05:29:14.481Z,0
2017-02-28T05:30:25.274Z,0
2017-02-28T05:31:36.065Z,0
2017-02-28T05:32:46.888Z,0
2017-02-28T05:33:57.653Z,0
2017-02-28T05:35:08.433Z,0
2017-02-28T05:36:18.826Z,0
2017-02-28T05:37:29.637Z,0
2017-02-28T05:38:40.033Z,5
2017-02-28T05:39:50.424Z,5
2017-02-28T05:41:00.792Z,5
2017-02-28T05:42:11.208Z,5
2017-02-28T05:43:21.969Z,5
2017-02-28T05:44:31.182Z,5
2017-02-28T05:45:41.187Z,10
2017-02-28T05:46:52.017Z,10
2017-02-28T05:48:02.392Z,10
2017-02-28T05:49:13.170Z,10
2017-02-28T05:50:23.941Z,10
2017-02-28T05:51:34.328Z,15
2017-02-28T05:52:45.125Z,15
2017-02-28T05:53:55.907Z,15
2017-02-28T05:55:06.672Z,15
2017-02-28T05:56:17.084Z,15
2017-02-28T05:57:27.845Z,15
2017-02-28T05:58:38.614Z,15
2017-02-28T05:59:49.389Z,15
2017-02-28T06:01:00.173Z,20
2017-02-28T06:02:10.559Z,20
2017-02-28T06:03:20.948Z,25
2017-02-28T06:04:31.711Z,25
2017-02-28T06:05:42.094Z,20
2017-02-28T06:06:52.896Z,20
2017-02-28T06:08:03.667Z,25
2017-02-28T06:09:13.653Z,25
2017-02-28T06:10:24.054Z,25
2017-02-28T06:11:34.436Z,30
2017-02-28T06:12:44.836Z,30
2017-02-28T06:13:55.641Z,30
2017-02-28T06:15:06.426Z,30
2017-02-28T06:16:17.231Z,30
2017-02-28T06:17:28.019Z,30
2017-02-28T06:18:38.785Z,30
2017-02-28T06:19:48.780Z,30
2017-02-28T06:20:59.611Z,30
2017-02-28T06:22:09.993Z,30
2017-02-28T06:23:20.778Z,30
2017-02-28T06:24:31.160Z,35
2017-02-28T06:25:41.957Z,35
2017-02-28T06:26:51.953Z,35
2017-02-28T06:28:02.729Z,35
2017-02-28T06:29:13.505Z,35
2017-02-28T06:30:24.305Z,40
2017-02-28T06:31:35.096Z,40
2017-02-28T06:32:45.490Z,40
2017-02-28T06:33:55.889Z,40
2017-02-28T06:35:06.272Z,45
2017-02-28T06:36:16.679Z,45
2017-02-28T06:37:27.070Z,45
2017-02-28T06:38:37.452Z,45
2017-02-28T06:39:47.837Z,45
2017-02-28T06:40:58.224Z,45
2017-02-28T06:42:08.607Z,50
2017-02-28T06:43:18.983Z,50
2017-02-28T06:44:29.381Z,50
2017-02-28T06:45:39.362Z,50
2017-02-28T06:46:49.349Z,50
2017-02-28T06:47:59.390Z,55
2017-02-28T06:49:09.811Z,55
2017-02-28T06:50:20.593Z,55
2017-02-28T06:51:31.365Z,55
2017-02-28T06:52:41.775Z,55
2017-02-28T06:53:52.188Z,55
2017-02-28T06:55:02.206Z,55
2017-02-28T06:56:12.613Z,60
2017-02-28T06:57:23.421Z,60
2017-02-28T06:58:34.220Z,60
2017-02-28T06:59:45.015Z,60
2017-02-28T07:00:55.795Z,65
2017-02-28T07:02:06.595Z,65
2017-02-28T07:03:16.969Z,70
2017-02-28T07:04:27.358Z,70
2017-02-28T07:05:38.139Z,75
2017-02-28T07:06:48.534Z,90
2017-02-28T07:07:58.510Z,95
2017-02-28T07:09:08.887Z,100
2017-02-28T07:10:18.858Z,100
2017-02-28T07:11:29.640Z,105
2017-02-28T07:12:40.416Z,105
2017-02-28T07:13:50.791Z,105
2017-02-28T07:15:01.193Z,105
2017-02-28T07:16:11.597Z,110
2017-02-28T07:17:21.993Z,115
2017-02-28T07:18:32.419Z,120
2017-02-28T07:19:42.814Z,115
2017-02-28T07:20:53.594Z,110
2017-02-28T07:22:03.975Z,120
2017-02-28T07:23:14.797Z,130
2017-02-28T07:24:25.203Z,140
2017-02-28T07:25:35.591Z,140
2017-02-28T07:26:46.366Z,145
2017-02-28T07:27:56.352Z,155
2017-02-28T07:29:06.746Z,160
2017-02-28T07:30:17.547Z,165
2017-02-28T07:31:28.365Z,165
2017-02-28T07:32:38.772Z,170
2017-02-28T07:33:48.768Z,170
2017-02-28T07:34:59.143Z,175
2017-02-28T07:36:09.147Z,170
2017-02-28T07:37:19.531Z,175
2017-02-28T07:38:29.929Z,175
2017-02-28T07:39:40.760Z,175
2017-02-28T07:40:51.146Z,175
2017-02-28T07:42:01.544Z,180
2017-02-28T07:43:12.304Z,180
2017-02-28T07:44:22.686Z,180
2017-02-28T07:45:33.468Z,175
2017-02-28T07:46:44.292Z,165
2017-02-28T07:47:55.086Z,160
2017-02-28T07:49:05.069Z,170
2017-02-28T07:50:15.456Z,170
2017-02-28T07:51:25.842Z,180
2017-02-28T07:52:36.863Z,185
2017-02-28T07:53:47.252Z,185
2017-02-28T07:54:58.037Z,180
2017-02-28T07:56:08.020Z,180
2017-02-28T07:57:18.799Z,170
2017-02-28T07:58:28.783Z,175
2017-02-28T07:59:39.168Z,175
2017-02-28T08:00:49.572Z,185
2017-02-28T08:02:00.354Z,175
2017-02-28T08:03:11.140Z,175
2017-02-28T08:04:21.516Z,185
2017-02-28T08:05:31.512Z,200
2017-02-28T08:06:42.299Z,190
2017-02-28T08:07:52.280Z,195
2017-02-28T08:09:02.264Z,185
2017-02-28T08:10:12.238Z,175
2017-02-28T08:11:23.029Z,180
2017-02-28T08:12:33.016Z,180
2017-02-28T08:13:43.807Z,170
2017-02-28T08:14:54.213Z,175
2017-02-28T08:16:04.627Z,180
2017-02-28T08:17:14.994Z,190
2017-02-28T08:18:25.787Z,195
2017-02-28T08:19:36.552Z,195
2017-02-28T08:20:46.547Z,185
2017-02-28T08:21:57.345Z,190
2017-02-28T08:23:07.745Z,180
2017-02-28T08:24:18.142Z,195
2017-02-28T08:25:28.931Z,190
2017-02-28T08:26:38.928Z,190
2017-02-28T08:27:49.313Z,190
2017-02-28T08:29:00.096Z,185
2017-02-28T08:30:10.471Z,190
2017-02-28T08:31:20.100Z,190
2017-02-28T08:32:30.101Z,190
2017-02-28T08:33:40.921Z,195
2017-02-28T08:34:51.703Z,205
2017-02-28T08:36:02.101Z,205
2017-02-28T08:37:12.515Z,200
2017-02-28T08:38:22.498Z,210
2017-02-28T08:39:32.902Z,200
2017-02-28T08:40:43.327Z,215
2017-02-28T08:41:53.709Z,220
2017-02-28T08:43:03.724Z,230
2017-02-28T08:44:14.490Z,240
2017-02-28T08:45:24.889Z,240
2017-02-28T08:46:35.289Z,240
2017-02-28T08:47:45.666Z,245
2017-02-28T08:48:55.663Z,245
2017-02-28T08:50:06.447Z,240
2017-02-28T08:51:16.827Z,240
2017-02-28T08:52:27.229Z,240
2017-02-28T08:53:37.647Z,240
2017-02-28T08:54:48.478Z,235
2017-02-28T08:55:58.868Z,225
2017-02-28T08:57:08.910Z,235
2017-02-28T08:58:19.696Z,225
2017-02-28T08:59:29.705Z,230
2017-02-28T09:00:40.095Z,245
2017-02-28T09:01:50.875Z,250
2017-02-28T09:03:00.879Z,255
2017-02-28T09:04:11.272Z,260
2017-02-28T09:05:21.316Z,255
2017-02-28T09:06:31.731Z,240
2017-02-28T09:07:42.116Z,255
2017-02-28T09:08:52.503Z,250
2017-02-28T09:10:02.878Z,235
2017-02-28T09:11:12.870Z,250
2017-02-28T09:12:23.253Z,260
2017-02-28T09:13:33.259Z,260
2017-02-28T09:14:43.662Z,255
2017-02-28T09:15:54.453Z,255
2017-02-28T09:17:04.908Z,255
2017-02-28T09:18:15.718Z,255
2017-02-28T09:19:25.713Z,255
2017-02-28T09:20:36.489Z,250
2017-02-28T09:21:46.493Z,230
2017-02-28T09:22:57.291Z,235
2017-02-28T09:24:08.081Z,240
2017-02-28T09:25:18.872Z,260
2017-02-28T09:26:29.674Z,280
2017-02-28T09:27:40.265Z,285
2017-02-28T09:28:50.710Z,290
2017-02-28T09:30:01.584Z,290
2017-02-28T09:31:12.025Z,295
2017-02-28T09:32:22.876Z,300
2017-02-28T09:33:33.745Z,280
2017-02-28T09:34:44.606Z,270
2017-02-28T09:35:55.428Z,265
2017-02-28T09:37:06.123Z,275
2017-02-28T09:38:16.538Z,250
2017-02-28T09:39:26.978Z,235
2017-02-28T09:40:37.430Z,225
2017-02-28T09:41:47.043Z,220
2017-02-28T09:42:57.863Z,215
2017-02-28T09:44:08.663Z,215
2017-02-28T09:45:19.056Z,220
2017-02-28T09:46:29.044Z,215
2017-02-28T09:47:39.064Z,265
2017-02-28T09:48:49.872Z,255
2017-02-28T09:50:00.689Z,270
2017-02-28T09:51:11.086Z,270
2017-02-28T09:52:21.870Z,285
2017-02-28T09:53:32.277Z,295
2017-02-28T09:54:43.092Z,245
2017-02-28T09:55:53.874Z,235
2017-02-28T09:57:04.702Z,235
2017-02-28T09:58:15.515Z,235
2017-02-28T09:59:25.512Z,225
2017-02-28T10:00:36.328Z,225
2017-02-28T10:01:46.766Z,250
2017-02-28T10:02:57.574Z,235
2017-02-28T10:04:07.975Z,235
2017-02-28T10:05:18.771Z,255
2017-02-28T10:06:29.570Z,255
2017-02-28T10:07:39.968Z,260
2017-02-28T10:08:49.592Z,255
2017-02-28T10:09:59.233Z,265
2017-02-28T10:11:09.628Z,255
2017-02-28T10:12:20.029Z,250
2017-02-28T10:13:30.030Z,225
2017-02-28T10:14:40.476Z,230
2017-02-28T10:15:51.287Z,260
2017-02-28T10:17:01.294Z,250
2017-02-28T10:18:12.106Z,265
2017-02-28T10:19:22.899Z,250
2017-02-28T10:20:33.730Z,250
2017-02-28T10:21:43.761Z,255
2017-02-28T10:22:54.581Z,255
2017-02-28T10:24:05.003Z,250
2017-02-28T10:25:15.783Z,230
2017-02-28T10:26:26.584Z,225
2017-02-28T10:27:37.030Z,235
2017-02-28T10:28:47.470Z,245
2017-02-28T10:29:57.917Z,250
2017-02-28T10:31:07.975Z,235
2017-02-28T10:32:18.446Z,225
2017-02-28T10:33:28.880Z,230
2017-02-28T10:34:38.994Z,230
2017-02-28T10:35:49.829Z,225
2017-02-28T10:37:00.642Z,225
2017-02-28T10:38:11.514Z,225
2017-02-28T10:39:22.356Z,225
2017-02-28T10:40:33.211Z,230
2017-02-28T10:41:44.073Z,230
2017-02-28T10:42:54.520Z,230
2017-02-28T10:44:05.401Z,220
2017-02-28T10:45:16.069Z,220
2017-02-28T10:46:26.895Z,230
2017-02-28T10:47:37.286Z,240
2017-02-28T10:48:48.089Z,250
2017-02-28T10:49:58.949Z,250
2017-02-28T10:51:09.346Z,240
2017-02-28T10:52:20.157Z,240
2017-02-28T10:53:30.975Z,240
2017-02-28T10:54:41.387Z,240
2017-02-28T10:55:51.794Z,245
2017-02-28T10:57:02.588Z,255
2017-02-28T10:58:13.393Z,255
2017-02-28T10:59:24.191Z,260
2017-02-28T11:00:34.616Z,250
2017-02-28T11:01:44.619Z,245
2017-02-28T11:02:54.645Z,245
2017-02-28T11:04:05.073Z,255
2017-02-28T11:05:15.479Z,255
2017-02-28T11:06:25.880Z,255
2017-02-28T11:07:36.667Z,255
2017-02-28T11:08:47.466Z,265
2017-02-28T11:09:57.888Z,255
2017-02-28T11:11:08.308Z,250
2017-02-28T11:12:19.124Z,250
2017-02-28T11:13:29.938Z,255
2017-02-28T11:14:39.955Z,265
2017-02-28T11:15:50.367Z,260
2017-02-28T11:17:00.792Z,250
2017-02-28T11:18:11.223Z,265
2017-02-28T11:19:21.624Z,255
2017-02-28T11:20:32.437Z,255
2017-02-28T11:21:42.820Z,250
2017-02-28T11:22:53.618Z,250
2017-02-28T11:24:04.401Z,255
2017-02-28T11:25:14.799Z,260
2017-02-28T11:26:25.603Z,255
2017-02-28T11:27:36.026Z,265
2017-02-28T11:28:46.445Z,265
2017-02-28T11:29:56.473Z,265
2017-02-28T11:31:06.873Z,260
2017-02-28T11:32:17.695Z,255
2017-02-28T11:33:28.103Z,260
2017-02-28T11:34:38.144Z,270
2017-02-28T11:35:48.984Z,270
2017-02-28T11:36:59.788Z,240
2017-02-28T11:38:10.613Z,255
2017-02-28T11:39:21.398Z,250
2017-02-28T11:40:32.189Z,240
2017-02-28T11:41:42.603Z,240
2017-02-28T11:42:52.216Z,245
2017-02-28T11:44:02.610Z,235
2017-02-28T11:45:13.430Z,235
2017-02-28T11:46:24.235Z,230
2017-02-28T11:47:35.060Z,225
2017-02-28T11:48:45.865Z,220
2017-02-28T11:49:56.290Z,215
2017-02-28T11:51:06.710Z,210
2017-02-28T11:52:17.521Z,210
2017-02-28T11:53:27.931Z,210
2017-02-28T11:54:38.577Z,210
2017-02-28T11:55:48.592Z,210
2017-02-28T11:56:59.041Z,215
2017-02-28T11:58:09.824Z,215
2017-02-28T11:59:20.630Z,215
2017-02-28T12:00:31.071Z,215
2017-02-28T12:01:41.488Z,215
2017-02-28T12:02:51.091Z,215
2017-02-28T12:04:01.888Z,215
2017-02-28T12:05:11.891Z,215
2017-02-28T12:06:22.729Z,210
2017-02-28T12:07:33.537Z,210
2017-02-28T12:08:44.305Z,205
2017-02-28T12:09:55.113Z,205
2017-02-28T12:11:05.889Z,205
2017-02-28T12:12:15.879Z,205
2017-02-28T12:13:26.278Z,205
2017-02-28T12:14:37.095Z,205
2017-02-28T12:15:47.888Z,205
2017-02-28T12:16:58.316Z,205
2017-02-28T12:18:08.719Z,205
2017-02-28T12:19:18.731Z,205
2017-02-28T12:20:29.530Z,205
2017-02-28T12:21:39.950Z,205
2017-02-28T12:22:50.343Z,200
2017-02-28T12:24:01.136Z,200
2017-02-28T12:25:11.933Z,200
2017-02-28T12:26:22.367Z,200
2017-02-28T12:27:32.785Z,195
2017-02-28T12:28:42.752Z,195
2017-02-28T12:29:53.567Z,200
2017-02-28T12:31:03.968Z,200
2017-02-28T12:32:13.580Z,200
2017-02-28T12:33:23.622Z,200
2017-02-28T12:34:33.626Z,205
2017-02-28T12:35:44.028Z,205
2017-02-28T12:36:54.433Z,205
2017-02-28T12:38:05.236Z,210
2017-02-28T12:39:16.037Z,205
2017-02-28T12:40:26.434Z,200
2017-02-28T12:41:36.475Z,200
2017-02-28T12:42:47.292Z,200
2017-02-28T12:43:57.686Z,205
2017-02-28T12:45:08.488Z,205
2017-02-28T12:46:18.486Z,210
2017-02-28T12:47:28.892Z,210
2017-02-28T12:48:39.747Z,205
2017-02-28T12:49:50.555Z,205
2017-02-28T12:51:00.990Z,205
2017-02-28T12:52:11.403Z,210
2017-02-28T12:53:21.828Z,210
2017-02-28T12:54:32.649Z,220
2017-02-28T12:55:43.054Z,215
2017-02-28T12:56:53.055Z,215
2017-02-28T12:58:03.860Z,210
2017-02-28T12:59:14.458Z,210
2017-02-28T13:00:24.088Z,210
2017-02-28T13:01:34.894Z,215
2017-02-28T13:02:45.684Z,215
2017-02-28T13:03:55.690Z,210
2017-02-28T13:05:05.698Z,210
2017-02-28T13:06:16.491Z,210
2017-02-28T13:07:26.903Z,210
2017-02-28T13:08:37.680Z,210
2017-02-28T13:09:48.474Z,210
2017-02-28T13:10:58.484Z,215
2017-02-28T13:12:09.296Z,210
2017-02-28T13:13:20.094Z,220
2017-02-28T13:14:30.871Z,215
2017-02-28T13:15:40.924Z,200
2017-02-28T13:16:51.718Z,195
2017-02-28T13:18:02.141Z,205
2017-02-28T13:19:12.169Z,190
2017-02-28T13:20:22.584Z,200
2017-02-28T13:21:32.973Z,205
2017-02-28T13:22:43.761Z,225
2017-02-28T13:23:53.743Z,235
2017-02-28T13:25:04.548Z,220
2017-02-28T13:26:15.340Z,210
2017-02-28T13:27:25.781Z,210
2017-02-28T13:28:36.602Z,200
2017-02-28T13:29:47.026Z,185
2017-02-28T13:30:57.435Z,180
2017-02-28T13:32:08.251Z,180
2017-02-28T13:33:18.655Z,190
2017-02-28T13:34:29.075Z,195
2017-02-28T13:35:39.882Z,195
2017-02-28T13:36:50.720Z,190
2017-02-28T13:38:01.116Z,180
2017-02-28T13:39:11.934Z,170
2017-02-28T13:40:22.787Z,175
2017-02-28T13:41:33.182Z,195
2017-02-28T13:42:44.001Z,200
2017-02-28T13:43:54.652Z,200
2017-02-28T13:45:05.044Z,195
2017-02-28T13:46:15.843Z,185
2017-02-28T13:47:25.842Z,175
2017-02-28T13:48:36.657Z,155
2017-02-28T13:49:47.478Z,140
2017-02-28T13:50:58.286Z,135
2017-02-28T13:52:09.085Z,130
2017-02-28T13:53:19.503Z,125
2017-02-28T13:54:30.341Z,120
2017-02-28T13:55:40.736Z,115
2017-02-28T13:56:51.156Z,110
2017-02-28T13:58:01.597Z,105
2017-02-28T13:59:12.385Z,100
2017-02-28T14:00:23.199Z,95
2017-02-28T14:01:34.006Z,90
2017-02-28T14:02:44.789Z,90
2017-02-28T14:03:54.802Z,100
2017-02-28T14:05:04.815Z,100
2017-02-28T14:06:15.210Z,105
2017-02-28T14:07:25.615Z,100
2017-02-28T14:08:36.029Z,105
2017-02-28T14:09:46.101Z,105
2017-02-28T14:10:56.513Z,105
2017-02-28T14:12:06.923Z,100
2017-02-28T14:13:16.954Z,95
2017-02-28T14:14:26.993Z,100
2017-02-28T14:15:37.434Z,105
2017-02-28T14:16:47.838Z,105
2017-02-28T14:17:57.851Z,100
2017-02-28T14:19:07.878Z,90
2017-02-28T14:20:18.686Z,95
2017-02-28T14:21:29.470Z,100
2017-02-28T14:22:39.867Z,100
2017-02-28T14:23:49.486Z,90
2017-02-28T14:25:00.294Z,95
2017-02-28T14:26:10.707Z,100
2017-02-28T14:27:21.528Z,110
2017-02-28T14:28:31.923Z,115
2017-02-28T14:29:42.715Z,120
2017-02-28T14:30:53.136Z,125
2017-02-28T14:32:03.581Z,130
2017-02-28T14:33:14.379Z,130
2017-02-28T14:34:25.170Z,135
2017-02-28T14:35:35.593Z,140
2017-02-28T14:36:45.981Z,140
2017-02-28T14:37:56.394Z,140
2017-02-28T14:39:06.384Z,135
2017-02-28T14:40:17.198Z,145
2017-02-28T14:41:27.201Z,140
2017-02-28T14:42:38.025Z,140
2017-02-28T14:43:48.416Z,135
2017-02-28T14:44:58.840Z,130
2017-02-28T14:46:08.865Z,120
2017-02-28T14:47:19.283Z,120
2017-02-28T14:48:30.114Z,115
2017-02-28T14:49:40.912Z,115
2017-02-28T14:50:51.699Z,120
2017-02-28T14:52:02.093Z,120
2017-02-28T14:53:12.479Z,120
2017-02-28T14:54:22.882Z,115
2017-02-28T14:55:33.665Z,110
2017-02-28T14:56:43.693Z,110
2017-02-28T14:57:54.506Z,110
2017-02-28T14:59:04.958Z,105
2017-02-28T15:00:15.775Z,100
2017-02-28T15:01:26.579Z,95
2017-02-28T15:02:37.407Z,95
2017-02-28T15:03:48.221Z,85
2017-02-28T15:04:58.281Z,80
2017-02-28T15:06:09.048Z,80
2017-02-28T15:07:19.060Z,75
2017-02-28T15:08:29.873Z,70
2017-02-28T15:09:39.907Z,65
2017-02-28T15:10:50.712Z,60
2017-02-28T15:12:01.503Z,60
2017-02-28T15:13:11.895Z,65
2017-02-28T15:14:21.907Z,65
2017-02-28T15:15:31.536Z,70
2017-02-28T15:16:41.576Z,65
2017-02-28T15:17:52.001Z,65
2017-02-28T15:19:02.059Z,60
2017-02-28T15:20:12.865Z,60
2017-02-28T15:21:23.743Z,55
2017-02-28T15:22:33.353Z,55
2017-02-28T15:23:43.778Z,55
2017-02-28T15:24:54.583Z,55
2017-02-28T15:26:05.383Z,50
2017-02-28T15:27:16.188Z,50
2017-02-28T15:28:26.988Z,50
2017-02-28T15:29:37.814Z,45
2017-02-28T15:30:48.228Z,45
2017-02-28T15:31:58.630Z,40
2017-02-28T15:33:09.405Z,40
2017-02-28T15:34:19.783Z,40
2017-02-28T15:35:30.190Z,40
2017-02-28T15:36:41.009Z,40
2017-02-28T15:37:51.829Z,35
2017-02-28T15:39:02.237Z,35
2017-02-28T15:40:13.019Z,35
2017-02-28T15:41:23.410Z,35
2017-02-28T15:42:34.219Z,35
2017-02-28T15:43:45.052Z,35
2017-02-28T15:44:55.842Z,40
2017-02-28T15:46:06.252Z,40
2017-02-28T15:47:16.664Z,40
2017-02-28T15:48:26.680Z,40
2017-02-28T15:49:37.075Z,35
2017-02-28T15:50:47.868Z,35
2017-02-28T15:51:58.669Z,35
2017-02-28T15:53:09.487Z,30
2017-02-28T15:54:19.919Z,30
2017-02-28T15:55:30.746Z,30
2017-02-28T15:56:41.153Z,25
2017-02-28T15:57:51.937Z,25
2017-02-28T15:59:02.356Z,25
2017-02-28T16:00:11.961Z,25
2017-02-28T16:01:21.976Z,20
2017-02-28T16:02:31.985Z,20
2017-02-28T16:03:42.783Z,20
2017-02-28T16:04:53.185Z,20
2017-02-28T16:06:03.614Z,20
2017-02-28T16:07:13.663Z,20
2017-02-28T16:08:24.798Z,20
2017-02-28T16:09:35.832Z,15
2017-02-28T16:10:46.416Z,15
2017-02-28T16:11:57.263Z,15
2017-02-28T16:13:07.293Z,15
2017-02-28T16:14:17.693Z,15
2017-02-28T16:15:28.155Z,10
2017-02-28T16:16:38.956Z,10
2017-02-28T16:17:49.753Z,10
2017-02-28T16:19:00.582Z,10
2017-02-28T16:20:10.979Z,10
2017-02-28T16:21:21.761Z,10
2017-02-28T16:22:32.160Z,5
2017-02-28T16:23:41.812Z,5
2017-02-28T16:24:52.610Z,5
2017-02-28T16:26:03.021Z,5
2017-02-28T16:27:13.845Z,5
2017-02-28T16:28:23.900Z,5
2017-02-28T16:29:34.703Z,5
2017-02-28T16:30:45.490Z,0
2017-02-28T16:31:55.897Z,0
2017-02-28T16:33:06.285Z,0
2017-02-28T16:34:17.092Z,0
2017-02-28T16:35:27.864Z,0
2017-02-28T16:36:38.657Z,0
2017-02-28T16:37:49.477Z,0
2017-02-28T16:38:59.522Z,0
2017-02-28T16:40:10.381Z,0
2017-02-28T16:41:20.780Z,0
2017-02-28T16:42:31.207Z,0
2017-02-28T16:43:42.001Z,0
2017-02-28T16:44:52.416Z,0
2017-02-28T16:46:03.234Z,0
2017-02-28T16:47:13.649Z,0
2017-02-28T16:48:24.426Z,0
2017-02-28T16:49:34.848Z,0
2017-02-28T16:50:45.254Z,0
2017-02-28T16:51:56.111Z,0
2017-02-28T16:53:06.533Z,0
2017-02-28T16:54:16.161Z,0
2017-02-28T16:55:26.999Z,0
2017-02-28T16:56:37.061Z,0
2017-02-28T16:57:47.865Z,0
2017-02-28T16:58:58.288Z,0
2017-02-28T17:00:09.070Z,0
2017-02-28T17:01:19.461Z,0
2017-02-28T17:02:30.258Z,0
2017-02-28T17:03:41.063Z,0
2017-02-28T17:04:51.883Z,0
2017-02-28T17:06:02.283Z,0
2017-02-28T17:07:12.702Z,0
2017-02-28T17:08:23.506Z,0
2017-02-28T17:09:34.339Z,0
2017-02-28T17:10:45.136Z,0
2017-02-28T17:11:55.927Z,0
2017-02-28T17:13:05.950Z,0